createdAt,value
2022-12-27T00:04:16.904Z,95.70
2022-12-27T00:09:09.227Z,95.48
2022-12-27T00:14:05.865Z,95.86
2022-12-27T00:18:58.054Z,96.26
2022-12-27T00:23:56.236Z,96.34
2022-12-27T00:28:49.094Z,96.40
2022-12-27T00:33:41.994Z,96.78
2022-12-27T00:38:34.747Z,97.20
2022-12-27T00:43:26.444Z,97.87
2022-12-27T00:48:18.232Z,98.04
2022-12-27T00:53:11.820Z,98.13
2022-12-27T00:58:03.753Z,98.37
2022-12-27T01:02:55.635Z,98.28
2022-12-27T01:07:47.459Z,98.62
2022-12-27T01:12:39.266Z,99.18
2022-12-27T01:17:31.070Z,99.62
2022-12-27T01:22:23.067Z,99.12
2022-12-27T01:27:15.006Z,99.49
2022-12-27T01:32:07.430Z,99.48
2022-12-27T01:36:59.161Z,99.82
2022-12-27T01:42:09.899Z,99.66
2022-12-27T01:47:03.282Z,99.79
2022-12-27T01:51:55.009Z,99.42
2022-12-27T01:56:47.056Z,99.36
2022-12-27T02:01:43.204Z,99.26
2022-12-27T02:06:37.115Z,99.35
2022-12-27T02:11:51.449Z,99.99
2022-12-27T02:16:43.098Z,99.93
2022-12-27T02:21:55.981Z,99.98
2022-12-27T02:27:08.114Z,100.00
2022-12-27T02:32:12.019Z,100.00
2022-12-27T02:37:09.173Z,100.00
2022-12-27T02:42:21.481Z,100.00
2022-12-27T02:47:42.484Z,100.00
2022-12-27T02:52:55.501Z,100.00
2022-12-27T02:58:09.646Z,100.00
2022-12-27T03:03:26.713Z,100.00
2022-12-27T03:08:27.430Z,100.00
2022-12-27T03:13:43.151Z,100.00
2022-12-27T03:18:51.244Z,100.00
2022-12-27T03:24:04.364Z,100.00
2022-12-27T03:29:16.481Z,100.00
2022-12-27T03:34:31.238Z,100.00
2022-12-27T03:39:37.618Z,100.00
2022-12-27T03:44:29.371Z,100.00
2022-12-27T03:49:44.124Z,100.00
2022-12-27T03:54:41.030Z,100.00
2022-12-27T03:59:32.989Z,100.00
2022-12-27T04:04:24.740Z,100.00
2022-12-27T04:09:35.235Z,100.00
2022-12-27T04:14:45.357Z,100.00
2022-12-27T04:19:55.686Z,100.00
2022-12-27T04:25:05.796Z,100.00
2022-12-27T04:30:16.261Z,100.00
2022-12-27T04:35:08.077Z,100.00
2022-12-27T04:40:18.675Z,100.00
2022-12-27T04:45:29.210Z,100.00
2022-12-27T04:50:45.259Z,100.00
2022-12-27T04:55:36.999Z,100.00
2022-12-27T05:00:49.754Z,100.00
2022-12-27T05:05:42.695Z,100.00
2022-12-27T05:10:52.895Z,100.00
2022-12-27T05:15:44.625Z,100.00
2022-12-27T05:20:36.386Z,100.00
2022-12-27T05:25:38.522Z,100.00
2022-12-27T05:30:33.447Z,100.00
2022-12-27T05:35:25.182Z,100.00
2022-12-27T05:40:16.947Z,100.00
2022-12-27T05:45:08.918Z,100.00
2022-12-27T05:50:00.587Z,100.00
2022-12-27T05:54:52.270Z,100.00
2022-12-27T05:59:44.071Z,100.00
2022-12-27T06:04:35.704Z,100.00
2022-12-27T06:09:27.407Z,100.00
2022-12-27T06:14:19.117Z,100.00
2022-12-27T06:19:10.769Z,100.00
2022-12-27T06:24:02.407Z,100.00
2022-12-27T06:28:56.249Z,100.00
2022-12-27T06:33:50.201Z,100.00
2022-12-27T06:38:42.388Z,100.00
2022-12-27T06:43:34.432Z,100.00
2022-12-27T06:48:26.286Z,100.00
2022-12-27T06:53:18.028Z,100.00
2022-12-27T06:58:09.715Z,100.00
2022-12-27T07:03:04.232Z,100.00
2022-12-27T07:07:56.083Z,100.00
2022-12-27T07:12:47.921Z,100.00
2022-12-27T07:17:39.697Z,100.00
2022-12-27T07:22:31.571Z,100.00
2022-12-27T07:27:23.371Z,100.00
2022-12-27T07:32:15.011Z,100.00
2022-12-27T07:37:07.548Z,100.00
2022-12-27T07:42:04.704Z,100.00
2022-12-27T07:46:59.486Z,100.00
2022-12-27T07:51:51.082Z,100.00
2022-12-27T07:56:42.830Z,100.00
2022-12-27T08:01:54.668Z,100.00
2022-12-27T08:06:46.685Z,100.00
2022-12-27T08:11:38.323Z,100.00
2022-12-27T08:16:30.046Z,100.00
2022-12-27T08:21:21.860Z,100.00
2022-12-27T08:26:13.546Z,100.00
2022-12-27T08:31:08.309Z,100.00
2022-12-27T08:36:53.553Z,100.00
2022-12-27T08:41:21.327Z,100.00
2022-12-27T08:46:13.044Z,100.00
2022-12-27T08:51:12.386Z,100.00
2022-12-27T08:56:05.803Z,100.00
2022-12-27T09:01:05.253Z,100.00
2022-12-27T09:06:17.287Z,100.00
2022-12-27T09:11:18.248Z,100.00
2022-12-27T09:16:13.176Z,100.00
2022-12-27T09:21:07.380Z,100.00
2022-12-27T09:25:59.065Z,100.00
2022-12-27T09:30:50.785Z,100.00
2022-12-27T09:35:42.473Z,100.00
2022-12-27T09:40:34.225Z,100.00
2022-12-27T09:45:35.595Z,100.00
2022-12-27T09:50:52.422Z,100.00
2022-12-27T09:55:48.565Z,100.00
2022-12-27T10:00:46.082Z,100.00
2022-12-27T10:05:39.728Z,100.00
2022-12-27T10:11:01.655Z,100.00
2022-12-27T10:16:20.412Z,100.00
2022-12-27T10:21:24.656Z,100.00
2022-12-27T10:26:20.304Z,100.00
2022-12-27T10:31:21.123Z,100.00
2022-12-27T10:36:24.743Z,100.00
2022-12-27T10:41:16.274Z,100.00
2022-12-27T10:46:19.415Z,100.00
2022-12-27T10:51:11.985Z,100.00
2022-12-27T10:56:09.674Z,100.00
2022-12-27T11:01:01.389Z,100.00
2022-12-27T11:06:05.237Z,100.00
2022-12-27T11:11:23.138Z,100.00
2022-12-27T11:16:26.371Z,100.00
2022-12-27T11:21:27.465Z,100.00
2022-12-27T11:26:23.572Z,100.00
2022-12-27T11:31:18.081Z,100.00
2022-12-27T11:36:12.032Z,100.00
2022-12-27T11:41:12.178Z,100.00
2022-12-27T11:46:13.956Z,100.00
2022-12-27T11:51:30.611Z,100.00
2022-12-27T11:56:32.448Z,100.00
2022-12-27T12:01:54.803Z,100.00
2022-12-27T12:07:24.562Z,100.00
2022-12-27T12:12:38.171Z,100.00
2022-12-27T12:17:48.684Z,100.00
2022-12-27T12:22:59.991Z,100.00
2022-12-27T12:28:47.310Z,100.00
2022-12-27T12:33:33.811Z,100.00
2022-12-27T12:38:47.356Z,100.00
2022-12-27T12:43:59.954Z,100.00
2022-12-27T12:49:16.279Z,100.00
2022-12-27T12:54:29.195Z,100.00
2022-12-27T12:59:52.944Z,100.00
2022-12-27T13:05:13.481Z,100.00
2022-12-27T13:10:57.760Z,100.00
2022-12-27T13:15:58.305Z,100.00
2022-12-27T13:21:16.595Z,100.00
2022-12-27T13:26:32.763Z,100.00
2022-12-27T13:31:36.490Z,100.00
2022-12-27T13:36:46.611Z,100.00
2022-12-27T13:42:15.985Z,100.00
2022-12-27T13:48:01.868Z,100.00
2022-12-27T13:53:01.968Z,100.00
2022-12-27T13:58:20.919Z,100.00
2022-12-27T14:03:34.197Z,100.00
2022-12-27T14:08:43.538Z,100.00
2022-12-27T14:13:40.237Z,100.00
2022-12-27T14:19:15.473Z,100.00
2022-12-27T14:24:31.971Z,100.00
2022-12-27T14:30:12.778Z,100.00
2022-12-27T14:35:25.501Z,100.00
2022-12-27T14:40:22.708Z,100.00
2022-12-27T14:45:35.875Z,100.00
2022-12-27T14:50:52.162Z,100.00
2022-12-27T14:56:03.603Z,100.00
2022-12-27T15:01:15.369Z,100.00
2022-12-27T15:06:45.380Z,100.00
2022-12-27T15:11:55.787Z,100.00
2022-12-27T15:16:56.555Z,100.00
2022-12-27T15:22:02.166Z,100.00
2022-12-27T15:26:59.503Z,100.00
2022-12-27T15:32:03.696Z,100.00
2022-12-27T15:36:55.666Z,100.00
2022-12-27T15:41:50.423Z,100.00
2022-12-27T15:47:05.527Z,100.00
2022-12-27T15:52:16.294Z,100.00
2022-12-27T15:57:32.587Z,100.00
2022-12-27T16:02:42.451Z,100.00
2022-12-27T16:07:51.816Z,100.00
2022-12-27T16:12:45.175Z,100.00
2022-12-27T16:17:55.644Z,100.00
2022-12-27T16:22:50.819Z,100.00
2022-12-27T16:27:43.392Z,100.00
2022-12-27T16:32:35.820Z,100.00
2022-12-27T16:37:44.942Z,100.00
2022-12-27T16:42:49.297Z,100.00
2022-12-27T16:47:46.579Z,100.00
2022-12-27T16:53:04.686Z,100.00
2022-12-27T16:58:35.496Z,100.00
2022-12-27T17:03:27.192Z,100.00
2022-12-27T17:08:21.175Z,100.00
2022-12-27T17:13:22.453Z,100.00
2022-12-27T17:18:51.989Z,100.00
2022-12-27T17:23:48.123Z,100.00
2022-12-27T17:29:05.952Z,100.00
2022-12-27T17:34:17.531Z,100.00
2022-12-27T17:39:34.043Z,100.00
2022-12-27T17:44:54.195Z,100.00
2022-12-27T17:49:47.534Z,100.00
2022-12-27T17:54:57.543Z,100.00
2022-12-27T17:59:50.865Z,100.00
2022-12-27T18:04:53.074Z,100.00
2022-12-27T18:09:55.698Z,100.00
2022-12-27T18:15:08.320Z,100.00
2022-12-27T18:20:00.173Z,100.00
2022-12-27T18:24:51.811Z,100.00
2022-12-27T18:29:43.900Z,100.00
2022-12-27T18:34:42.977Z,100.00
2022-12-27T18:39:47.245Z,100.00
2022-12-27T18:44:47.417Z,100.00
2022-12-27T18:49:39.063Z,100.00
2022-12-27T18:54:33.739Z,100.00
2022-12-27T18:59:31.241Z,100.00
2022-12-27T19:04:25.815Z,100.00
2022-12-27T19:09:19.991Z,100.00
2022-12-27T19:14:13.739Z,100.00
2022-12-27T19:19:10.143Z,100.00
2022-12-27T19:24:21.948Z,100.00
2022-12-27T19:29:37.884Z,100.00
2022-12-27T19:34:44.178Z,100.00
2022-12-27T19:39:38.709Z,100.00
2022-12-27T19:44:32.572Z,100.00
2022-12-27T19:54:35.982Z,100.00
2022-12-27T19:59:28.048Z,100.00
2022-12-27T20:04:20.218Z,100.00
2022-12-27T20:09:17.517Z,100.00
2022-12-27T20:14:09.609Z,100.00
2022-12-27T20:19:02.849Z,100.00
2022-12-27T20:23:54.987Z,100.00
2022-12-27T20:28:47.545Z,100.00
2022-12-27T20:33:39.426Z,100.00
2022-12-27T20:38:31.348Z,100.00
2022-12-27T20:43:23.007Z,100.00
2022-12-27T20:48:15.119Z,100.00
2022-12-27T20:53:07.360Z,100.00
2022-12-27T20:58:00.457Z,100.00
2022-12-27T21:02:52.473Z,100.00
2022-12-27T21:07:50.801Z,100.00
2022-12-27T21:12:42.522Z,100.00
2022-12-27T21:17:34.694Z,100.00
2022-12-27T21:22:26.738Z,100.00
2022-12-27T21:27:18.475Z,100.00
2022-12-27T21:32:10.976Z,100.00
2022-12-27T21:37:07.488Z,100.00
2022-12-27T21:42:03.400Z,100.00
2022-12-27T21:46:55.047Z,100.00
2022-12-27T21:51:47.077Z,100.00
2022-12-27T21:56:39.327Z,100.00
2022-12-27T22:01:51.953Z,100.00
2022-12-27T22:06:47.075Z,100.00
2022-12-27T22:11:39.739Z,100.00
2022-12-27T22:16:36.432Z,100.00
2022-12-27T22:21:30.897Z,100.00
2022-12-27T22:26:25.214Z,100.00
2022-12-27T22:31:22.386Z,100.00
2022-12-27T22:36:17.241Z,100.00
2022-12-27T22:41:14.846Z,100.00
2022-12-27T22:46:12.871Z,100.00
2022-12-27T22:51:13.955Z,100.00
2022-12-27T22:56:11.718Z,100.00
2022-12-27T23:01:10.837Z,100.00
2022-12-27T23:06:02.883Z,100.00
2022-12-27T23:10:54.841Z,100.00
2022-12-27T23:15:46.540Z,100.00
2022-12-27T23:20:38.347Z,100.00
2022-12-27T23:25:50.092Z,100.00
2022-12-27T23:30:41.766Z,100.00
2022-12-27T23:35:35.109Z,100.00
2022-12-27T23:40:26.799Z,100.00
2022-12-27T23:45:18.485Z,100.00
2022-12-27T23:50:10.959Z,100.00
2022-12-27T23:55:04.914Z,100.00
2022-12-27T23:59:56.586Z,100.00
